sensor_id;sensor_type;location;lat;lon;timestamp;pressure;altitude;pressure_sealevel;temperature;humidity
47753;BME280;2038;51.728;6.674;2024-02-16T00:01:44;76138.88;;;-141.64;80.14
47753;BME280;2038;51.728;6.674;2024-02-16T00:04:10;76136.91;;;-141.64;79.69
47753;BME280;2038;51.728;6.674;2024-02-16T00:06:36;76133.00;;;-141.64;79.61
47753;BME280;2038;51.728;6.674;2024-02-16T00:09:02;76123.25;;;-141.64;79.35
47753;BME280;2038;51.728;6.674;2024-02-16T00:11:29;76115.44;;;-141.64;79.19
47753;BME280;2038;51.728;6.674;2024-02-16T00:13:55;76111.53;;;-141.64;78.87
47753;BME280;2038;51.728;6.674;2024-02-16T00:16:21;76109.59;;;-141.64;79.07
47753;BME280;2038;51.728;6.674;2024-02-16T00:18:47;76101.78;;;-141.64;78.71
47753;BME280;2038;51.728;6.674;2024-02-16T00:21:14;76095.91;;;-141.64;78.64
47753;BME280;2038;51.728;6.674;2024-02-16T00:23:40;76099.81;;;-141.64;78.60
47753;BME280;2038;51.728;6.674;2024-02-16T00:26:06;76088.09;;;-141.64;78.42
47753;BME280;2038;51.728;6.674;2024-02-16T00:28:33;76088.09;;;-141.64;78.49
47753;BME280;2038;51.728;6.674;2024-02-16T00:31:00;76084.19;;;-141.64;78.00
47753;BME280;2038;51.728;6.674;2024-02-16T00:33:26;76082.25;;;-141.64;78.06
47753;BME280;2038;51.728;6.674;2024-02-16T00:35:55;76084.19;;;-141.64;77.79
47753;BME280;2038;51.728;6.674;2024-02-16T00:38:21;76078.34;;;-141.64;77.81
47753;BME280;2038;51.728;6.674;2024-02-16T00:40:48;76082.25;;;-141.64;77.81
47753;BME280;2038;51.728;6.674;2024-02-16T00:43:15;76080.31;;;-141.64;77.92
47753;BME280;2038;51.728;6.674;2024-02-16T00:45:43;76090.06;;;-141.64;78.09
47753;BME280;2038;51.728;6.674;2024-02-16T00:48:11;76088.09;;;-141.64;78.22
47753;BME280;2038;51.728;6.674;2024-02-16T00:50:37;76093.97;;;-141.64;78.16
47753;BME280;2038;51.728;6.674;2024-02-16T00:53:03;76097.88;;;-141.64;78.32
47753;BME280;2038;51.728;6.674;2024-02-16T00:55:30;76103.72;;;-141.64;78.38
47753;BME280;2038;51.728;6.674;2024-02-16T00:57:56;76105.69;;;-141.64;78.82
47753;BME280;2038;51.728;6.674;2024-02-16T01:00:23;76105.69;;;-141.64;78.50
47753;BME280;2038;51.728;6.674;2024-02-16T01:02:51;76103.72;;;-141.64;78.30
47753;BME280;2038;51.728;6.674;2024-02-16T01:05:21;76103.72;;;-141.64;78.75
47753;BME280;2038;51.728;6.674;2024-02-16T01:07:49;76107.63;;;-141.64;78.79
47753;BME280;2038;51.728;6.674;2024-02-16T01:10:15;76109.59;;;-141.64;78.59
47753;BME280;2038;51.728;6.674;2024-02-16T01:12:41;76111.53;;;-141.64;78.79
47753;BME280;2038;51.728;6.674;2024-02-16T01:15:08;76111.53;;;-141.64;78.69
47753;BME280;2038;51.728;6.674;2024-02-16T01:17:35;76125.19;;;-141.64;78.79
47753;BME280;2038;51.728;6.674;2024-02-16T01:20:01;76123.25;;;-141.64;78.69
47753;BME280;2038;51.728;6.674;2024-02-16T01:22:27;76127.16;;;-141.64;79.06
47753;BME280;2038;51.728;6.674;2024-02-16T01:24:56;76133.00;;;-141.64;78.95
47753;BME280;2038;51.728;6.674;2024-02-16T01:27:22;76142.78;;;-141.64;79.22
47753;BME280;2038;51.728;6.674;2024-02-16T01:29:48;76150.59;;;-141.64;79.28
47753;BME280;2038;51.728;6.674;2024-02-16T01:32:14;76142.78;;;-141.64;79.53
47753;BME280;2038;51.728;6.674;2024-02-16T01:34:41;76146.69;;;-141.64;79.62
47753;BME280;2038;51.728;6.674;2024-02-16T01:37:07;76144.72;;;-141.64;79.42
47753;BME280;2038;51.728;6.674;2024-02-16T01:39:33;76150.59;;;-141.64;79.55
47753;BME280;2038;51.728;6.674;2024-02-16T01:41:59;76152.53;;;-141.64;79.67
47753;BME280;2038;51.728;6.674;2024-02-16T01:44:26;76152.53;;;-141.64;79.76
47753;BME280;2038;51.728;6.674;2024-02-16T01:46:52;76150.59;;;-141.64;79.71
47753;BME280;2038;51.728;6.674;2024-02-16T01:49:18;76156.44;;;-141.64;79.96
47753;BME280;2038;51.728;6.674;2024-02-16T01:51:45;76154.47;;;-141.64;79.89
47753;BME280;2038;51.728;6.674;2024-02-16T01:54:12;76154.47;;;-141.64;79.96
47753;BME280;2038;51.728;6.674;2024-02-16T01:56:39;76152.53;;;-141.64;79.83
47753;BME280;2038;51.728;6.674;2024-02-16T01:59:05;76148.63;;;-141.64;80.03
47753;BME280;2038;51.728;6.674;2024-02-16T02:01:32;76150.59;;;-141.64;79.83
47753;BME280;2038;51.728;6.674;2024-02-16T02:03:58;76160.34;;;-141.64;79.79
47753;BME280;2038;51.728;6.674;2024-02-16T02:06:24;76164.25;;;-141.64;79.82
47753;BME280;2038;51.728;6.674;2024-02-16T02:08:50;76164.25;;;-141.64;79.91
47753;BME280;2038;51.728;6.674;2024-02-16T02:11:17;76166.19;;;-141.64;80.11
47753;BME280;2038;51.728;6.674;2024-02-16T02:13:43;76170.09;;;-141.64;80.19
47753;BME280;2038;51.728;6.674;2024-02-16T02:16:10;76170.09;;;-141.64;80.14
47753;BME280;2038;51.728;6.674;2024-02-16T02:18:37;76168.16;;;-141.64;80.02
47753;BME280;2038;51.728;6.674;2024-02-16T02:21:04;76160.34;;;-141.64;80.19
47753;BME280;2038;51.728;6.674;2024-02-16T02:23:30;76174.00;;;-141.64;80.09
47753;BME280;2038;51.728;6.674;2024-02-16T02:25:56;76168.16;;;-141.64;80.25
47753;BME280;2038;51.728;6.674;2024-02-16T02:28:23;76170.09;;;-141.64;80.42
47753;BME280;2038;51.728;6.674;2024-02-16T02:30:50;76174.00;;;-141.64;80.37
47753;BME280;2038;51.728;6.674;2024-02-16T02:33:16;76175.97;;;-141.64;80.38
47753;BME280;2038;51.728;6.674;2024-02-16T02:35:43;76168.16;;;-141.64;80.48
47753;BME280;2038;51.728;6.674;2024-02-16T02:38:09;76168.16;;;-141.64;80.42
47753;BME280;2038;51.728;6.674;2024-02-16T02:40:35;76160.34;;;-141.64;80.45
47753;BME280;2038;51.728;6.674;2024-02-16T02:43:02;76154.47;;;-141.64;80.31
47753;BME280;2038;51.728;6.674;2024-02-16T02:45:29;76154.47;;;-141.64;80.46
47753;BME280;2038;51.728;6.674;2024-02-16T02:47:56;76152.53;;;-141.64;80.52
47753;BME280;2038;51.728;6.674;2024-02-16T02:50:23;76148.63;;;-141.64;80.50
47753;BME280;2038;51.728;6.674;2024-02-16T02:52:50;76142.78;;;-141.64;80.55
47753;BME280;2038;51.728;6.674;2024-02-16T02:55:16;76140.81;;;-141.64;80.65
47753;BME280;2038;51.728;6.674;2024-02-16T02:57:42;76142.78;;;-141.64;80.36
47753;BME280;2038;51.728;6.674;2024-02-16T03:00:09;76138.88;;;-141.64;80.34
47753;BME280;2038;51.728;6.674;2024-02-16T03:02:40;76134.97;;;-141.64;80.46
47753;BME280;2038;51.728;6.674;2024-02-16T03:05:07;76138.88;;;-141.64;80.53
47753;BME280;2038;51.728;6.674;2024-02-16T03:07:34;76131.06;;;-141.64;80.39
47753;BME280;2038;51.728;6.674;2024-02-16T03:10:01;76134.97;;;-141.64;80.51
47753;BME280;2038;51.728;6.674;2024-02-16T03:12:29;76129.09;;;-141.64;80.69
47753;BME280;2038;51.728;6.674;2024-02-16T03:14:55;76140.81;;;-141.64;80.61
47753;BME280;2038;51.728;6.674;2024-02-16T03:17:22;76133.00;;;-141.64;80.48
47753;BME280;2038;51.728;6.674;2024-02-16T03:19:48;76123.25;;;-141.64;80.88
47753;BME280;2038;51.728;6.674;2024-02-16T03:22:14;76117.38;;;-141.64;80.57
47753;BME280;2038;51.728;6.674;2024-02-16T03:24:40;76103.72;;;-141.64;80.25
47753;BME280;2038;51.728;6.674;2024-02-16T03:27:06;76101.78;;;-141.64;79.96
47753;BME280;2038;51.728;6.674;2024-02-16T03:29:33;76090.06;;;-141.64;79.79
47753;BME280;2038;51.728;6.674;2024-02-16T03:31:59;76088.09;;;-141.64;79.91
47753;BME280;2038;51.728;6.674;2024-02-16T03:34:25;76080.31;;;-141.64;79.89
47753;BME280;2038;51.728;6.674;2024-02-16T03:36:52;76082.25;;;-141.64;79.89
47753;BME280;2038;51.728;6.674;2024-02-16T03:39:18;76078.34;;;-141.64;80.08
47753;BME280;2038;51.728;6.674;2024-02-16T03:41:46;76072.50;;;-141.64;79.85
47753;BME280;2038;51.728;6.674;2024-02-16T03:44:14;76062.72;;;-141.64;79.75
47753;BME280;2038;51.728;6.674;2024-02-16T03:46:44;76062.72;;;-141.64;79.46
47753;BME280;2038;51.728;6.674;2024-02-16T03:49:10;76056.88;;;-141.64;79.24
47753;BME280;2038;51.728;6.674;2024-02-16T03:51:36;76058.81;;;-141.64;79.30
47753;BME280;2038;51.728;6.674;2024-02-16T03:54:03;76058.81;;;-141.64;79.46
47753;BME280;2038;51.728;6.674;2024-02-16T03:56:32;76052.97;;;-141.64;79.24
47753;BME280;2038;51.728;6.674;2024-02-16T03:58:59;76047.09;;;-141.64;79.04
47753;BME280;2038;51.728;6.674;2024-02-16T04:01:25;76047.09;;;-141.64;79.02
47753;BME280;2038;51.728;6.674;2024-02-16T04:03:51;76052.97;;;-141.64;79.62
47753;BME280;2038;51.728;6.674;2024-02-16T04:06:19;76058.81;;;-141.64;79.49
47753;BME280;2038;51.728;6.674;2024-02-16T04:08:45;76054.91;;;-141.64;79.25
47753;BME280;2038;51.728;6.674;2024-02-16T04:11:12;76051.00;;;-141.64;79.43
47753;BME280;2038;51.728;6.674;2024-02-16T04:13:40;76054.91;;;-141.64;79.19
47753;BME280;2038;51.728;6.674;2024-02-16T04:16:07;76051.00;;;-141.64;78.85
47753;BME280;2038;51.728;6.674;2024-02-16T04:18:33;76047.09;;;-141.64;78.77
47753;BME280;2038;51.728;6.674;2024-02-16T04:21:00;76047.09;;;-141.64;78.82
47753;BME280;2038;51.728;6.674;2024-02-16T04:23:27;76045.16;;;-141.64;78.63
47753;BME280;2038;51.728;6.674;2024-02-16T04:25:53;76041.25;;;-141.64;78.50
47753;BME280;2038;51.728;6.674;2024-02-16T04:28:19;76041.25;;;-141.64;78.68
47753;BME280;2038;51.728;6.674;2024-02-16T04:30:45;76045.16;;;-141.64;78.61
47753;BME280;2038;51.728;6.674;2024-02-16T04:33:12;76054.91;;;-141.64;78.62
47753;BME280;2038;51.728;6.674;2024-02-16T04:35:38;76062.72;;;-141.64;78.80
47753;BME280;2038;51.728;6.674;2024-02-16T04:38:05;76062.72;;;-141.64;78.90
47753;BME280;2038;51.728;6.674;2024-02-16T04:40:35;76068.59;;;-141.64;78.96
47753;BME280;2038;51.728;6.674;2024-02-16T04:43:03;76080.31;;;-141.64;79.21
47753;BME280;2038;51.728;6.674;2024-02-16T04:45:29;76076.41;;;-141.64;79.55
47753;BME280;2038;51.728;6.674;2024-02-16T04:47:56;76068.59;;;-141.64;79.23
47753;BME280;2038;51.728;6.674;2024-02-16T04:50:22;76068.59;;;-141.64;79.09
47753;BME280;2038;51.728;6.674;2024-02-16T04:52:48;76062.72;;;-141.64;78.89
47753;BME280;2038;51.728;6.674;2024-02-16T04:55:15;76058.81;;;-141.64;78.88
47753;BME280;2038;51.728;6.674;2024-02-16T04:57:41;76058.81;;;-141.64;78.92
47753;BME280;2038;51.728;6.674;2024-02-16T05:00:07;76058.81;;;-141.64;79.00
47753;BME280;2038;51.728;6.674;2024-02-16T05:02:35;76060.78;;;-141.64;78.92
47753;BME280;2038;51.728;6.674;2024-02-16T05:05:01;76060.78;;;-141.64;78.96
47753;BME280;2038;51.728;6.674;2024-02-16T05:07:29;76056.88;;;-141.64;78.83
47753;BME280;2038;51.728;6.674;2024-02-16T05:09:57;76060.78;;;-141.64;78.99
47753;BME280;2038;51.728;6.674;2024-02-16T05:12:24;76066.63;;;-141.64;79.47
47753;BME280;2038;51.728;6.674;2024-02-16T05:14:51;76068.59;;;-141.64;79.33
47753;BME280;2038;51.728;6.674;2024-02-16T05:17:19;76068.59;;;-141.64;79.73
47753;BME280;2038;51.728;6.674;2024-02-16T05:19:46;76070.53;;;-141.64;79.61
47753;BME280;2038;51.728;6.674;2024-02-16T05:22:12;76068.59;;;-141.64;79.44
47753;BME280;2038;51.728;6.674;2024-02-16T05:24:38;76062.72;;;-141.64;79.34
47753;BME280;2038;51.728;6.674;2024-02-16T05:27:05;76058.81;;;-141.64;79.19
47753;BME280;2038;51.728;6.674;2024-02-16T05:29:31;76066.63;;;-141.64;79.57
47753;BME280;2038;51.728;6.674;2024-02-16T05:31:57;76058.81;;;-141.64;79.42
47753;BME280;2038;51.728;6.674;2024-02-16T05:34:24;76058.81;;;-141.64;79.71
47753;BME280;2038;51.728;6.674;2024-02-16T05:36:51;76052.97;;;-141.64;79.44
47753;BME280;2038;51.728;6.674;2024-02-16T05:39:17;76043.22;;;-141.64;79.52
47753;BME280;2038;51.728;6.674;2024-02-16T05:41:52;76039.31;;;-141.64;79.15
47753;BME280;2038;51.728;6.674;2024-02-16T05:44:19;76039.31;;;-141.64;79.33
47753;BME280;2038;51.728;6.674;2024-02-16T05:46:46;76037.34;;;-141.64;79.21
47753;BME280;2038;51.728;6.674;2024-02-16T05:49:13;76037.34;;;-141.64;79.21
47753;BME280;2038;51.728;6.674;2024-02-16T05:51:40;76043.22;;;-141.64;79.47
47753;BME280;2038;51.728;6.674;2024-02-16T05:54:08;76041.25;;;-141.64;79.47
47753;BME280;2038;51.728;6.674;2024-02-16T05:56:34;76047.09;;;-141.64;79.62
47753;BME280;2038;51.728;6.674;2024-02-16T05:59:02;76054.91;;;-141.64;79.83
47753;BME280;2038;51.728;6.674;2024-02-16T06:01:32;76060.78;;;-141.64;79.87
47753;BME280;2038;51.728;6.674;2024-02-16T06:03:58;76060.78;;;-141.64;80.22
47753;BME280;2038;51.728;6.674;2024-02-16T06:06:24;76060.78;;;-141.64;80.25
47753;BME280;2038;51.728;6.674;2024-02-16T06:08:50;76068.59;;;-141.64;80.31
47753;BME280;2038;51.728;6.674;2024-02-16T06:11:17;76066.63;;;-141.64;80.63
47753;BME280;2038;51.728;6.674;2024-02-16T06:13:43;76068.59;;;-141.64;80.86
47753;BME280;2038;51.728;6.674;2024-02-16T06:16:09;76068.59;;;-141.64;81.10
47753;BME280;2038;51.728;6.674;2024-02-16T06:18:36;76062.72;;;-141.64;81.06
47753;BME280;2038;51.728;6.674;2024-02-16T06:21:03;76056.88;;;-141.64;80.97
47753;BME280;2038;51.728;6.674;2024-02-16T06:23:29;76056.88;;;-141.64;80.99
47753;BME280;2038;51.728;6.674;2024-02-16T06:25:55;76052.97;;;-141.64;80.99
47753;BME280;2038;51.728;6.674;2024-02-16T06:28:22;76058.81;;;-141.64;81.00
47753;BME280;2038;51.728;6.674;2024-02-16T06:30:49;76060.78;;;-141.64;81.19
47753;BME280;2038;51.728;6.674;2024-02-16T06:33:15;76062.72;;;-141.64;81.49
47753;BME280;2038;51.728;6.674;2024-02-16T06:35:41;76062.72;;;-141.64;81.48
47753;BME280;2038;51.728;6.674;2024-02-16T06:38:07;76056.88;;;-141.64;81.51
47753;BME280;2038;51.728;6.674;2024-02-16T06:40:33;76054.91;;;-141.64;81.65
47753;BME280;2038;51.728;6.674;2024-02-16T06:43:00;76062.72;;;-141.64;81.88
47753;BME280;2038;51.728;6.674;2024-02-16T06:45:26;76054.91;;;-141.64;81.87
47753;BME280;2038;51.728;6.674;2024-02-16T06:47:52;76062.72;;;-141.64;82.00
47753;BME280;2038;51.728;6.674;2024-02-16T06:50:19;76060.78;;;-141.64;81.86
47753;BME280;2038;51.728;6.674;2024-02-16T06:52:45;76054.91;;;-141.64;82.01
47753;BME280;2038;51.728;6.674;2024-02-16T06:55:11;76054.91;;;-141.64;81.94
47753;BME280;2038;51.728;6.674;2024-02-16T06:57:37;76054.91;;;-141.64;81.92
47753;BME280;2038;51.728;6.674;2024-02-16T07:00:04;76051.00;;;-141.64;81.65
47753;BME280;2038;51.728;6.674;2024-02-16T07:02:31;76052.97;;;-141.64;81.60
47753;BME280;2038;51.728;6.674;2024-02-16T07:04:58;76041.25;;;-141.64;81.66
47753;BME280;2038;51.728;6.674;2024-02-16T07:07:24;76041.25;;;-141.64;81.53
47753;BME280;2038;51.728;6.674;2024-02-16T07:09:50;76035.41;;;-141.64;81.33
47753;BME280;2038;51.728;6.674;2024-02-16T07:12:17;76031.50;;;-141.64;80.94
47753;BME280;2038;51.728;6.674;2024-02-16T07:14:43;76021.72;;;-141.64;81.08
47753;BME280;2038;51.728;6.674;2024-02-16T07:17:11;76015.88;;;-141.64;80.86
47753;BME280;2038;51.728;6.674;2024-02-16T07:19:37;76015.88;;;-141.64;80.74
47753;BME280;2038;51.728;6.674;2024-02-16T07:22:03;76013.94;;;-141.64;80.68
47753;BME280;2038;51.728;6.674;2024-02-16T07:24:32;76027.59;;;-141.64;80.89
47753;BME280;2038;51.728;6.674;2024-02-16T07:26:59;76031.50;;;-141.64;81.07
47753;BME280;2038;51.728;6.674;2024-02-16T07:29:25;76033.44;;;-141.64;81.13
47753;BME280;2038;51.728;6.674;2024-02-16T07:31:53;76041.25;;;-141.64;81.30
47753;BME280;2038;51.728;6.674;2024-02-16T07:34:19;76039.31;;;-141.64;81.09
47753;BME280;2038;51.728;6.674;2024-02-16T07:36:46;76035.41;;;-141.64;81.00
47753;BME280;2038;51.728;6.674;2024-02-16T07:39:12;76039.31;;;-141.64;81.09
47753;BME280;2038;51.728;6.674;2024-02-16T07:41:39;76041.25;;;-141.64;81.12
47753;BME280;2038;51.728;6.674;2024-02-16T07:44:05;76039.31;;;-141.64;81.28
47753;BME280;2038;51.728;6.674;2024-02-16T07:46:31;76031.50;;;-141.64;81.41
47753;BME280;2038;51.728;6.674;2024-02-16T07:48:58;76029.53;;;-141.64;81.37
47753;BME280;2038;51.728;6.674;2024-02-16T07:51:24;76015.88;;;-141.64;81.16
47753;BME280;2038;51.728;6.674;2024-02-16T07:53:50;76021.72;;;-141.64;81.58
47753;BME280;2038;51.728;6.674;2024-02-16T07:56:16;76006.13;;;-141.64;80.87
47753;BME280;2038;51.728;6.674;2024-02-16T07:58:44;76011.97;;;-141.64;81.14
47753;BME280;2038;51.728;6.674;2024-02-16T08:01:12;76011.97;;;-141.64;80.96
47753;BME280;2038;51.728;6.674;2024-02-16T08:03:41;76002.22;;;-141.64;81.25
47753;BME280;2038;51.728;6.674;2024-02-16T08:06:07;75992.44;;;-141.64;80.73
47753;BME280;2038;51.728;6.674;2024-02-16T08:08:33;75994.41;;;-141.64;80.08
47753;BME280;2038;51.728;6.674;2024-02-16T08:11:00;75980.75;;;-141.64;80.08
47753;BME280;2038;51.728;6.674;2024-02-16T08:13:26;75976.84;;;-141.64;79.79
47753;BME280;2038;51.728;6.674;2024-02-16T08:15:52;75978.78;;;-141.64;79.73
47753;BME280;2038;51.728;6.674;2024-02-16T08:18:19;75976.84;;;-141.64;80.03
47753;BME280;2038;51.728;6.674;2024-02-16T08:20:46;75972.94;;;-141.64;79.54
47753;BME280;2038;51.728;6.674;2024-02-16T08:23:12;75959.25;;;-141.64;78.75
47753;BME280;2038;51.728;6.674;2024-02-16T08:25:38;75967.06;;;-141.64;78.99
47753;BME280;2038;51.728;6.674;2024-02-16T08:28:04;75980.75;;;-141.64;79.20
47753;BME280;2038;51.728;6.674;2024-02-16T08:30:31;75961.22;;;-141.64;78.79
47753;BME280;2038;51.728;6.674;2024-02-16T08:32:58;75967.06;;;-141.64;78.84
47753;BME280;2038;51.728;6.674;2024-02-16T08:35:26;75974.88;;;-141.64;79.22
47753;BME280;2038;51.728;6.674;2024-02-16T08:37:52;75990.50;;;-141.64;79.16
47753;BME280;2038;51.728;6.674;2024-02-16T08:40:18;75970.97;;;-141.64;78.95
47753;BME280;2038;51.728;6.674;2024-02-16T08:42:44;75980.75;;;-141.64;78.70
47753;BME280;2038;51.728;6.674;2024-02-16T08:45:11;75982.69;;;-141.64;78.64
47753;BME280;2038;51.728;6.674;2024-02-16T08:47:38;75982.69;;;-141.64;78.54
47753;BME280;2038;51.728;6.674;2024-02-16T08:50:05;75980.75;;;-141.64;78.46
47753;BME280;2038;51.728;6.674;2024-02-16T08:52:32;75972.94;;;-141.64;78.70
47753;BME280;2038;51.728;6.674;2024-02-16T08:54:59;75970.97;;;-141.64;78.82
47753;BME280;2038;51.728;6.674;2024-02-16T08:57:25;75972.94;;;-141.64;78.73
47753;BME280;2038;51.728;6.674;2024-02-16T08:59:51;75963.16;;;-141.64;78.90
47753;BME280;2038;51.728;6.674;2024-02-16T09:02:17;75967.06;;;-141.64;78.73
47753;BME280;2038;51.728;6.674;2024-02-16T09:04:45;75959.25;;;-141.64;79.02
47753;BME280;2038;51.728;6.674;2024-02-16T09:07:11;75957.31;;;-141.64;78.96
47753;BME280;2038;51.728;6.674;2024-02-16T09:09:38;75951.47;;;-141.64;78.62
47753;BME280;2038;51.728;6.674;2024-02-16T09:12:04;75947.56;;;-141.64;78.98
47753;BME280;2038;51.728;6.674;2024-02-16T09:14:31;75951.47;;;-141.64;79.00
47753;BME280;2038;51.728;6.674;2024-02-16T09:16:59;75951.47;;;-141.64;78.94
47753;BME280;2038;51.728;6.674;2024-02-16T09:19:25;75957.31;;;-141.64;78.78
47753;BME280;2038;51.728;6.674;2024-02-16T09:21:52;75965.13;;;-141.64;78.38
47753;BME280;2038;51.728;6.674;2024-02-16T09:24:20;75953.41;;;-141.64;78.62
47753;BME280;2038;51.728;6.674;2024-02-16T09:26:46;75951.47;;;-141.64;78.94
47753;BME280;2038;51.728;6.674;2024-02-16T09:29:13;75941.69;;;-141.64;78.47
47753;BME280;2038;51.728;6.674;2024-02-16T09:31:43;75931.94;;;-141.64;78.42
47753;BME280;2038;51.728;6.674;2024-02-16T09:34:09;75941.69;;;-141.64;78.06
47753;BME280;2038;51.728;6.674;2024-02-16T09:36:35;75941.69;;;-141.64;78.31
47753;BME280;2038;51.728;6.674;2024-02-16T09:39:03;75937.78;;;-141.64;78.54
47753;BME280;2038;51.728;6.674;2024-02-16T09:41:31;75935.84;;;-141.64;78.30
47753;BME280;2038;51.728;6.674;2024-02-16T09:44:00;75939.75;;;-141.64;78.15
47753;BME280;2038;51.728;6.674;2024-02-16T09:46:29;75943.66;;;-141.64;78.54
47753;BME280;2038;51.728;6.674;2024-02-16T09:48:59;75935.84;;;-141.64;78.73
47753;BME280;2038;51.728;6.674;2024-02-16T09:51:27;75935.84;;;-141.64;78.21
47753;BME280;2038;51.728;6.674;2024-02-16T09:53:54;75926.06;;;-141.64;78.04
47753;BME280;2038;51.728;6.674;2024-02-16T09:56:23;75924.13;;;-141.64;78.16
47753;BME280;2038;51.728;6.674;2024-02-16T09:58:51;75918.28;;;-141.64;78.27
47753;BME280;2038;51.728;6.674;2024-02-16T10:01:21;75916.31;;;-141.64;78.32
47753;BME280;2038;51.728;6.674;2024-02-16T10:03:49;75914.38;;;-141.64;77.92
47753;BME280;2038;51.728;6.674;2024-02-16T10:06:16;75924.13;;;-141.64;78.04
47753;BME280;2038;51.728;6.674;2024-02-16T10:08:55;75924.13;;;-141.64;78.53
47753;BME280;2038;51.728;6.674;2024-02-16T10:11:26;75924.13;;;-141.64;79.62
47753;BME280;2038;51.728;6.674;2024-02-16T10:14:00;75937.78;;;-141.64;79.93
47753;BME280;2038;51.728;6.674;2024-02-16T10:16:29;75941.69;;;-141.64;80.33
47753;BME280;2038;51.728;6.674;2024-02-16T10:18:57;75953.41;;;-141.64;80.49
47753;BME280;2038;51.728;6.674;2024-02-16T10:21:33;75957.31;;;-141.64;81.03
47753;BME280;2038;51.728;6.674;2024-02-16T10:24:07;75970.97;;;-141.64;81.42
47753;BME280;2038;51.728;6.674;2024-02-16T10:26:35;75980.75;;;-141.64;82.75
47753;BME280;2038;51.728;6.674;2024-02-16T10:29:09;75992.44;;;-141.64;83.60
47753;BME280;2038;51.728;6.674;2024-02-16T10:31:40;76002.22;;;-141.64;84.25
47753;BME280;2038;51.728;6.674;2024-02-16T10:34:07;76021.72;;;-141.64;84.77
47753;BME280;2038;51.728;6.674;2024-02-16T10:36:37;76029.53;;;-141.64;84.89
47753;BME280;2038;51.728;6.674;2024-02-16T10:39:06;76031.50;;;-141.64;84.91
47753;BME280;2038;51.728;6.674;2024-02-16T10:41:38;76031.50;;;-141.64;84.38
47753;BME280;2038;51.728;6.674;2024-02-16T10:44:05;76037.34;;;-141.64;84.49
47753;BME280;2038;51.728;6.674;2024-02-16T10:46:32;76027.59;;;-141.64;83.96
47753;BME280;2038;51.728;6.674;2024-02-16T10:49:00;76031.50;;;-141.64;83.24
47753;BME280;2038;51.728;6.674;2024-02-16T10:51:43;76025.63;;;-141.64;83.24
47753;BME280;2038;51.728;6.674;2024-02-16T10:54:15;76033.44;;;-141.64;83.11
47753;BME280;2038;51.728;6.674;2024-02-16T10:56:45;76023.69;;;-141.64;83.40
47753;BME280;2038;51.728;6.674;2024-02-16T10:59:13;76033.44;;;-141.64;83.20
47753;BME280;2038;51.728;6.674;2024-02-16T11:01:40;76031.50;;;-141.64;83.14
47753;BME280;2038;51.728;6.674;2024-02-16T11:04:18;76037.34;;;-141.64;83.22
47753;BME280;2038;51.728;6.674;2024-02-16T11:06:55;76031.50;;;-141.64;82.78
47753;BME280;2038;51.728;6.674;2024-02-16T11:09:35;76033.44;;;-141.64;82.91
47753;BME280;2038;51.728;6.674;2024-02-16T11:12:05;76039.31;;;-141.64;82.84
47753;BME280;2038;51.728;6.674;2024-02-16T11:14:45;76039.31;;;-141.64;82.87
47753;BME280;2038;51.728;6.674;2024-02-16T11:17:13;76037.34;;;-141.64;82.57
47753;BME280;2038;51.728;6.674;2024-02-16T11:19:41;76039.31;;;-141.64;82.60
47753;BME280;2038;51.728;6.674;2024-02-16T11:22:09;76033.44;;;-141.64;82.57
47753;BME280;2038;51.728;6.674;2024-02-16T11:24:42;76039.31;;;-141.64;82.62
47753;BME280;2038;51.728;6.674;2024-02-16T11:27:11;76041.25;;;-141.64;82.66
47753;BME280;2038;51.728;6.674;2024-02-16T11:29:39;76037.34;;;-141.64;82.84
47753;BME280;2038;51.728;6.674;2024-02-16T11:32:07;76045.16;;;-141.64;82.62
47753;BME280;2038;51.728;6.674;2024-02-16T11:34:34;76043.22;;;-141.64;82.92
47753;BME280;2038;51.728;6.674;2024-02-16T11:37:04;76045.16;;;-141.64;82.87
47753;BME280;2038;51.728;6.674;2024-02-16T11:39:31;76041.25;;;-141.64;83.01
47753;BME280;2038;51.728;6.674;2024-02-16T11:42:08;76051.00;;;-141.64;82.75
47753;BME280;2038;51.728;6.674;2024-02-16T11:44:39;76043.22;;;-141.64;82.87
47753;BME280;2038;51.728;6.674;2024-02-16T11:47:23;76039.31;;;-141.64;82.47
47753;BME280;2038;51.728;6.674;2024-02-16T11:50:09;76047.09;;;-141.64;82.93
47753;BME280;2038;51.728;6.674;2024-02-16T11:52:41;76062.72;;;-141.64;83.24
47753;BME280;2038;51.728;6.674;2024-02-16T11:55:11;76060.78;;;-141.64;84.02
47753;BME280;2038;51.728;6.674;2024-02-16T11:57:38;76062.72;;;-141.64;84.91
47753;BME280;2038;51.728;6.674;2024-02-16T12:00:05;76068.59;;;-141.64;85.28
47753;BME280;2038;51.728;6.674;2024-02-16T12:02:36;76062.72;;;-141.64;85.61
47753;BME280;2038;51.728;6.674;2024-02-16T12:05:03;76076.41;;;-141.64;85.94
47753;BME280;2038;51.728;6.674;2024-02-16T12:07:30;76084.19;;;-141.64;86.37
47753;BME280;2038;51.728;6.674;2024-02-16T12:10:00;76078.34;;;-141.64;86.50
47753;BME280;2038;51.728;6.674;2024-02-16T12:12:27;76090.06;;;-141.64;86.95
47753;BME280;2038;51.728;6.674;2024-02-16T12:14:54;76086.16;;;-141.64;87.18
47753;BME280;2038;51.728;6.674;2024-02-16T12:17:22;76084.19;;;-141.64;87.23
47753;BME280;2038;51.728;6.674;2024-02-16T12:19:50;76080.31;;;-141.64;87.41
47753;BME280;2038;51.728;6.674;2024-02-16T12:22:19;76084.19;;;-141.64;87.21
47753;BME280;2038;51.728;6.674;2024-02-16T12:24:49;76097.88;;;-141.64;87.24
47753;BME280;2038;51.728;6.674;2024-02-16T12:27:16;76097.88;;;-141.64;87.14
47753;BME280;2038;51.728;6.674;2024-02-16T12:29:43;76093.97;;;-141.64;86.97
47753;BME280;2038;51.728;6.674;2024-02-16T12:32:09;76092.00;;;-141.64;87.02
47753;BME280;2038;51.728;6.674;2024-02-16T12:34:36;76101.78;;;-141.64;87.17
47753;BME280;2038;51.728;6.674;2024-02-16T12:37:08;76101.78;;;-141.64;86.98
47753;BME280;2038;51.728;6.674;2024-02-16T12:39:37;76099.81;;;-141.64;86.81
47753;BME280;2038;51.728;6.674;2024-02-16T12:42:04;76109.59;;;-141.64;86.77
47753;BME280;2038;51.728;6.674;2024-02-16T12:44:30;76107.63;;;-141.64;86.54
47753;BME280;2038;51.728;6.674;2024-02-16T12:46:57;76111.53;;;-141.64;87.01
47753;BME280;2038;51.728;6.674;2024-02-16T12:49:23;76119.34;;;-141.64;87.23
47753;BME280;2038;51.728;6.674;2024-02-16T12:51:50;76121.28;;;-141.64;87.10